Herbert, Canada
Current Conditions -  °F | °C
As of 5:00 AM on Saturday 01 Nov 2014 (Local Time) from CYYN Reporting Station
Clear Clear  
Wind Chill: 29°   Ceiling: Unl
Heat Index: 37°   Visibility: 9mi
Dew Point: 32°   Wind: 14mph
Humidity: 81%   Direction: 230°SW
Pressure: 29.69"   Gusts: NA
Location:  50.43°N, 107.22°W
Report Text: CYYN 011100Z AUTO 23012KT 9SM CLR 03/00 A2969 RMK SLP069
Loading
Personal Weather Stations






























Interactive Weather Map
Tropical Storm Tracking
New forecast layout! Learn more

10-Day Weather Forecast

Advertisements
Track Severe Weather on mobile